Time;durP1;ratioP1;P1;durP2;ratioP2;P2;SDS_P1;SDS_P2;PMS_P1;PMS_P2;Temp;Humidity;BMP_temperature;BMP_pressure;BME280_temperature;BME280_humidity;BME280_pressure;Samples;Min_cycle;Max_cycle;Signal;HPM_P1;HPM_P2
2021/11/22 00:00:40;;;;;;;33.05;12.55;;;3.30;99.90;;;;;;5095657;28;20024;-67
2021/11/22 00:03:07;;;;;;;33.75;12.40;;;3.20;99.90;;;;;;5094614;28;20024;-67
2021/11/22 00:05:33;;;;;;;35.35;13.07;;;3.20;99.90;;;;;;5095495;28;20024;-67
2021/11/22 00:07:58;;;;;;;29.45;12.80;;;3.30;99.90;;;;;;5093614;28;20115;-67
2021/11/22 00:10:24;;;;;;;29.83;13.15;;;3.30;99.90;;;;;;5093163;28;20020;-67
2021/11/22 00:12:50;;;;;;;28.90;13.20;;;3.40;99.90;;;;;;5094762;28;20020;-67
2021/11/22 00:15:17;;;;;;;35.72;13.85;;;3.40;99.90;;;;;;5095106;28;20070;-67
2021/11/22 00:17:42;;;;;;;28.85;13.30;;;3.20;99.90;;;;;;5095039;28;20421;-67
2021/11/22 00:20:12;;;;;;;33.50;12.40;;;3.30;99.90;;;;;;5094094;28;20106;-67
2021/11/22 00:22:38;;;;;;;35.83;13.20;;;3.30;99.90;;;;;;5094947;28;20024;-67
2021/11/22 00:25:05;;;;;;;36.28;14.07;;;3.30;99.90;;;;;;5093715;28;20102;-67
2021/11/22 00:27:31;;;;;;;39.67;14.32;;;3.30;99.90;;;;;;5094460;28;20051;-67
2021/11/22 00:29:56;;;;;;;36.45;14.13;;;3.30;99.90;;;;;;5093629;28;20031;-67
2021/11/22 00:32:22;;;;;;;35.58;14.02;;;3.20;99.90;;;;;;5093586;28;20020;-67
2021/11/22 00:34:49;;;;;;;37.80;14.68;;;3.10;99.90;;;;;;5093518;28;20047;-69
2021/11/22 00:37:20;;;;;;;36.60;15.20;;;3.10;99.90;;;;;;5094658;28;20016;-67
2021/11/22 00:39:46;;;;;;;37.55;14.95;;;3.10;99.90;;;;;;5094903;28;20043;-68
2021/11/22 00:42:12;;;;;;;31.27;14.57;;;3.10;99.90;;;;;;5094303;28;20024;-68
2021/11/22 00:44:38;;;;;;;37.78;15.52;;;3.20;99.90;;;;;;5094265;28;20054;-67
2021/11/22 00:47:06;;;;;;;38.10;16.80;;;3.20;99.90;;;;;;5094705;28;20095;-68
2021/11/22 00:49:32;;;;;;;38.15;16.52;;;3.30;99.90;;;;;;5094732;28;20028;-67
2021/11/22 00:51:58;;;;;;;36.28;17.23;;;3.40;99.90;;;;;;5075992;28;20031;-68
2021/11/22 00:54:24;;;;;;;49.78;18.40;;;3.50;99.90;;;;;;5076026;28;20028;-68
2021/11/22 00:56:49;;;;;;;40.95;19.88;;;3.60;99.90;;;;;;5093463;28;20031;-67
2021/11/22 00:59:15;;;;;;;41.03;19.45;;;3.70;99.90;;;;;;5093117;28;20036;-68
2021/11/22 01:01:42;;;;;;;44.38;20.02;;;3.80;99.90;;;;;;5094564;28;20508;-68
2021/11/22 01:04:08;;;;;;;49.33;21.08;;;3.90;99.90;;;;;;5094552;28;20020;-68
2021/11/22 01:06:33;;;;;;;44.55;20.30;;;3.90;99.90;;;;;;5094375;28;20035;-67
2021/11/22 01:08:59;;;;;;;39.92;20.63;;;4.00;99.90;;;;;;5094433;28;20059;-68
2021/11/22 01:11:24;;;;;;;43.55;21.23;;;4.10;99.90;;;;;;5092602;28;20024;-67
2021/11/22 01:13:50;;;;;;;51.88;22.17;;;4.20;99.90;;;;;;5092928;28;20063;-68
2021/11/22 01:16:16;;;;;;;41.13;20.88;;;4.20;99.90;;;;;;5094064;28;20384;-68
2021/11/22 01:18:42;;;;;;;44.95;23.23;;;4.30;99.90;;;;;;5094076;28;20030;-68
2021/11/22 01:21:07;;;;;;;47.42;23.27;;;4.40;99.90;;;;;;5092511;28;20459;-68
2021/11/22 01:23:42;;;;;;;43.63;22.17;;;4.40;99.90;;;;;;5093781;28;20042;-68
2021/11/22 01:26:08;;;;;;;42.58;22.77;;;4.50;99.90;;;;;;5092202;28;20020;-68
2021/11/22 01:28:34;;;;;;;46.40;22.73;;;4.50;99.90;;;;;;5092313;28;20119;-68
2021/11/22 01:31:00;;;;;;;48.00;21.75;;;4.60;99.90;;;;;;5094170;28;20066;-68
2021/11/22 01:33:26;;;;;;;35.22;20.80;;;4.60;99.90;;;;;;5093876;28;20066;-68
2021/11/22 01:35:52;;;;;;;44.50;22.15;;;4.70;99.90;;;;;;5093580;28;20090;-68
2021/11/22 01:38:19;;;;;;;42.90;22.67;;;4.70;99.90;;;;;;5094144;28;20093;-68
2021/11/22 01:40:46;;;;;;;49.58;21.67;;;4.80;99.90;;;;;;5094116;28;20051;-67
2021/11/22 01:43:14;;;;;;;42.88;20.58;;;4.80;99.90;;;;;;5093775;28;20353;-68
2021/11/22 01:45:45;;;;;;;46.20;20.67;;;4.80;99.90;;;;;;5092927;28;20032;-66
2021/11/22 01:48:13;;;;;;;39.45;19.17;;;4.90;99.90;;;;;;5092769;28;20024;-66
2021/11/22 01:50:39;;;;;;;36.38;19.95;;;5.00;99.90;;;;;;5092151;28;20027;-66
2021/11/22 01:53:05;;;;;;;40.80;20.55;;;4.90;99.90;;;;;;5093970;28;20024;-66
2021/11/22 01:55:31;;;;;;;30.92;18.67;;;5.00;99.90;;;;;;5092111;28;20138;-66
2021/11/22 01:57:58;;;;;;;33.83;17.75;;;5.10;99.90;;;;;;5092807;28;20115;-66
2021/11/22 02:00:30;;;;;;;40.10;18.40;;;5.10;99.90;;;;;;5092469;28;20027;-65
2021/11/22 02:02:57;;;;;;;23.93;13.57;;;5.10;99.90;;;;;;5093674;28;20384;-66
2021/11/22 02:05:23;;;;;;;30.35;16.48;;;5.20;99.90;;;;;;5092082;28;20028;-66
2021/11/22 02:07:49;;;;;;;33.15;17.27;;;5.20;99.90;;;;;;5093528;28;20024;-66
2021/11/22 02:10:16;;;;;;;36.67;17.65;;;5.30;99.90;;;;;;5092693;28;20016;-66
2021/11/22 02:12:41;;;;;;;32.28;17.98;;;5.30;99.90;;;;;;5093838;28;20012;-66
2021/11/22 02:15:10;;;;;;;28.92;16.70;;;5.30;99.90;;;;;;5075514;28;20418;-66
2021/11/22 02:17:39;;;;;;;31.02;16.52;;;5.30;99.90;;;;;;5092357;28;20024;-66
2021/11/22 02:20:08;;;;;;;33.22;16.65;;;5.30;99.90;;;;;;5093593;28;20028;-67
2021/11/22 02:22:34;;;;;;;28.50;16.50;;;5.40;99.90;;;;;;5093717;28;20028;-65
2021/11/22 02:25:04;;;;;;;28.48;15.85;;;5.40;99.90;;;;;;5093407;28;20468;-66
2021/11/22 02:27:31;;;;;;;25.02;16.92;;;5.50;99.90;;;;;;5093019;28;20044;-66
2021/11/22 02:29:57;;;;;;;24.35;15.13;;;5.50;99.90;;;;;;5093426;28;20507;-66
2021/11/22 02:32:22;;;;;;;26.98;16.27;;;5.50;99.90;;;;;;5092134;28;20119;-65
2021/11/22 02:34:48;;;;;;;26.45;16.30;;;5.50;99.90;;;;;;5095187;28;20044;-65
2021/11/22 02:37:13;;;;;;;28.15;16.13;;;5.50;99.90;;;;;;5097219;28;20354;-66
2021/11/22 02:39:39;;;;;;;24.20;15.02;;;5.50;99.90;;;;;;5096949;28;20117;-65
2021/11/22 02:42:12;;;;;;;29.13;14.85;;;5.60;99.90;;;;;;5097127;28;20028;-67
2021/11/22 02:44:38;;;;;;;25.10;14.20;;;5.60;99.90;;;;;;5097179;28;20027;-67
2021/11/22 02:47:03;;;;;;;21.92;13.98;;;5.60;99.90;;;;;;5096712;28;20028;-67
2021/11/22 02:49:29;;;;;;;20.90;14.05;;;5.70;99.90;;;;;;5097043;28;20020;-67
2021/11/22 02:51:54;;;;;;;22.67;15.05;;;5.70;99.90;;;;;;5095763;28;20028;-67
2021/11/22 02:54:20;;;;;;;24.30;14.63;;;5.70;99.90;;;;;;5096647;28;20020;-67
2021/11/22 02:56:46;;;;;;;23.88;15.38;;;5.70;99.90;;;;;;5095448;28;20354;-65
2021/11/22 02:59:11;;;;;;;22.27;14.48;;;5.70;99.90;;;;;;5096866;28;20024;-67
2021/11/22 03:01:38;;;;;;;23.13;14.13;;;5.70;99.90;;;;;;5096789;28;20024;-67
2021/11/22 03:04:04;;;;;;;21.10;14.05;;;5.70;99.90;;;;;;5096768;28;20028;-67
2021/11/22 03:06:29;;;;;;;24.95;14.60;;;5.70;99.90;;;;;;5096383;28;20380;-66
2021/11/22 03:08:55;;;;;;;23.98;14.93;;;5.70;99.90;;;;;;5096115;28;20379;-66
2021/11/22 03:11:21;;;;;;;25.13;15.10;;;5.70;99.90;;;;;;5096589;28;20031;-66
2021/11/22 03:13:48;;;;;;;26.10;15.27;;;5.60;99.90;;;;;;5095274;28;20030;-66
2021/11/22 03:16:15;;;;;;;27.25;15.95;;;5.70;99.90;;;;;;5096539;28;20047;-67
2021/11/22 03:18:41;;;;;;;24.40;16.10;;;5.70;99.90;;;;;;5096455;28;20027;-66
2021/11/22 03:21:07;;;;;;;28.40;16.45;;;5.60;99.90;;;;;;5095871;28;20399;-66
2021/11/22 03:23:34;;;;;;;20.75;14.32;;;5.60;99.90;;;;;;5096399;28;20028;-66
2021/11/22 03:26:01;;;;;;;22.75;14.30;;;5.70;99.90;;;;;;5094933;28;20020;-65
2021/11/22 03:28:28;;;;;;;21.30;13.50;;;5.60;99.90;;;;;;5095951;28;20055;-66
2021/11/22 03:30:54;;;;;;;21.08;13.10;;;5.50;99.90;;;;;;5095959;28;20024;-66
2021/11/22 03:33:20;;;;;;;19.20;12.43;;;5.50;99.90;;;;;;5094798;28;20480;-67
2021/11/22 03:35:48;;;;;;;19.85;12.68;;;5.50;99.90;;;;;;5096176;28;20476;-67
2021/11/22 03:38:15;;;;;;;20.13;13.25;;;5.50;99.90;;;;;;5094304;28;20496;-67
2021/11/22 03:40:43;;;;;;;21.33;13.30;;;5.50;99.90;;;;;;5077645;28;20031;-67
2021/11/22 03:45:47;;;;;;;18.65;12.43;;;5.40;99.90;;;;;;5112242;27;20763;-67
2021/11/22 03:48:13;;;;;;;22.38;12.68;;;5.30;99.90;;;;;;5112016;28;20078;-67
2021/11/22 03:50:39;;;;;;;18.92;11.95;;;5.30;99.90;;;;;;5111372;28;20103;-67
2021/11/22 03:53:05;;;;;;;18.35;12.32;;;5.30;99.90;;;;;;5110516;28;20428;-66
2021/11/22 03:55:31;;;;;;;17.35;11.63;;;5.20;99.90;;;;;;5111596;28;20472;-66
2021/11/22 03:57:56;;;;;;;21.52;12.38;;;5.10;99.90;;;;;;5111567;28;20492;-67
2021/11/22 04:00:24;;;;;;;17.27;11.52;;;5.10;99.90;;;;;;5111503;28;20019;-67
2021/11/22 04:02:50;;;;;;;18.33;12.32;;;5.10;99.90;;;;;;5111454;28;20480;-66
2021/11/22 04:05:16;;;;;;;18.15;11.80;;;5.00;99.90;;;;;;5111592;28;20055;-67
2021/11/22 04:07:42;;;;;;;21.23;12.30;;;4.90;99.90;;;;;;5110496;28;20024;-67
2021/11/22 04:10:08;;;;;;;16.33;11.20;;;4.90;99.90;;;;;;5110613;28;20031;-66
2021/11/22 04:12:34;;;;;;;22.08;11.95;;;4.80;99.90;;;;;;5111531;28;20059;-67
2021/11/22 04:14:59;;;;;;;17.30;12.30;;;4.70;99.90;;;;;;5109953;28;20100;-67
2021/11/22 04:17:25;;;;;;;16.70;12.25;;;4.50;99.90;;;;;;5092704;28;20024;-66
2021/11/22 04:19:51;;;;;;;19.20;12.02;;;4.60;99.90;;;;;;5110106;28;20027;-66
2021/11/22 04:22:16;;;;;;;20.40;13.07;;;4.50;99.90;;;;;;5109560;28;20130;-66
2021/11/22 04:24:42;;;;;;;20.85;12.20;;;4.60;99.90;;;;;;5110271;28;20035;-66
2021/11/22 04:27:10;;;;;;;21.27;12.35;;;4.50;99.90;;;;;;5111248;28;20361;-66
2021/11/22 04:29:36;;;;;;;20.45;12.50;;;4.40;99.90;;;;;;5111230;28;20341;-66
2021/11/22 04:32:02;;;;;;;24.10;13.25;;;4.40;99.90;;;;;;5110909;28;20077;-67
2021/11/22 04:34:28;;;;;;;18.65;13.23;;;4.30;99.90;;;;;;5110551;28;20028;-67
2021/11/22 04:36:53;;;;;;;19.98;13.10;;;4.20;99.90;;;;;;5109628;28;20034;-66
2021/11/22 04:39:19;;;;;;;22.20;12.43;;;4.30;99.90;;;;;;5092535;28;20090;-65
2021/11/22 04:41:47;;;;;;;19.38;12.45;;;4.30;99.90;;;;;;5109246;28;20028;-66
2021/11/22 04:44:13;;;;;;;20.23;13.50;;;4.30;99.90;;;;;;5110128;28;20396;-67
2021/11/22 04:46:38;;;;;;;19.48;13.27;;;4.30;99.90;;;;;;5110584;28;20020;-66
2021/11/22 04:49:04;;;;;;;22.58;12.82;;;4.30;99.90;;;;;;5109301;28;20419;-66
2021/11/22 04:51:29;;;;;;;20.70;12.50;;;4.30;99.90;;;;;;5092086;28;20016;-66
2021/11/22 04:53:55;;;;;;;21.00;13.57;;;4.30;99.90;;;;;;5110773;28;20475;-66
2021/11/22 04:56:21;;;;;;;19.73;13.20;;;4.30;99.90;;;;;;5099681;28;20024;-67
2021/11/22 04:58:46;;;;;;;21.33;13.85;;;4.30;99.90;;;;;;5095312;28;20056;-67
2021/11/22 05:01:12;;;;;;;17.58;13.25;;;4.30;99.90;;;;;;5095775;28;20024;-65
2021/11/22 05:03:37;;;;;;;20.88;13.25;;;4.40;99.90;;;;;;5096945;28;20028;-66
2021/11/22 05:06:03;;;;;;;19.88;12.07;;;4.40;99.90;;;;;;5096663;28;20403;-65
2021/11/22 05:08:28;;;;;;;20.88;13.65;;;4.40;99.90;;;;;;5095423;28;20074;-65
2021/11/22 05:10:54;;;;;;;21.13;13.60;;;4.40;99.90;;;;;;5096277;28;20350;-66
2021/11/22 05:13:21;;;;;;;22.23;13.43;;;4.40;99.90;;;;;;5096526;28;20020;-67
2021/11/22 05:15:49;;;;;;;25.85;15.93;;;4.50;99.90;;;;;;5096462;28;20016;-67
2021/11/22 05:18:15;;;;;;;24.52;15.43;;;4.50;99.90;;;;;;5096714;28;20044;-67
2021/11/22 05:20:42;;;;;;;21.77;15.52;;;4.50;99.90;;;;;;5096407;28;20035;-66
2021/11/22 05:23:09;;;;;;;24.55;14.55;;;4.50;99.90;;;;;;5096596;28;20020;-67
2021/11/22 05:25:35;;;;;;;27.05;16.45;;;4.50;99.90;;;;;;5096486;28;20032;-67
2021/11/22 05:28:03;;;;;;;22.60;15.05;;;4.60;99.90;;;;;;5094642;28;20020;-67
2021/11/22 05:30:29;;;;;;;26.08;16.30;;;4.60;99.90;;;;;;5094769;28;20478;-67
2021/11/22 05:32:58;;;;;;;32.08;19.60;;;4.50;99.90;;;;;;5096419;28;20146;-66
2021/11/22 05:35:24;;;;;;;35.35;20.13;;;4.60;99.90;;;;;;5094952;28;20536;-66
2021/11/22 05:37:51;;;;;;;32.97;19.42;;;4.50;99.90;;;;;;5096312;28;20468;-66
2021/11/22 05:40:17;;;;;;;38.72;21.88;;;4.60;99.90;;;;;;5094461;28;20387;-66
2021/11/22 05:42:43;;;;;;;37.67;20.92;;;4.60;99.90;;;;;;5077607;28;20028;-66
2021/11/22 05:45:09;;;;;;;36.53;21.80;;;4.60;99.90;;;;;;5095583;28;20052;-66
2021/11/22 05:47:34;;;;;;;32.50;19.25;;;4.60;99.90;;;;;;5095589;28;20024;-66
2021/11/22 05:50:05;;;;;;;29.48;17.92;;;4.60;99.90;;;;;;5094477;28;20081;-67
2021/11/22 05:52:34;;;;;;;27.60;17.10;;;4.70;99.90;;;;;;5095781;28;20047;-66
2021/11/22 05:55:00;;;;;;;24.55;15.88;;;4.60;99.90;;;;;;5095462;28;20031;-67
2021/11/22 05:57:26;;;;;;;23.83;15.80;;;4.70;99.90;;;;;;5095976;28;20530;-67
2021/11/22 05:59:51;;;;;;;24.42;15.45;;;4.60;99.90;;;;;;5094518;28;20032;-66
2021/11/22 06:02:18;;;;;;;22.45;15.13;;;4.60;99.90;;;;;;5094142;28;20035;-67
2021/11/22 06:04:43;;;;;;;24.98;14.45;;;4.60;99.90;;;;;;5095762;28;20077;-67
2021/11/22 06:07:09;;;;;;;24.13;16.33;;;4.60;99.90;;;;;;5093420;28;20016;-67
2021/11/22 06:09:36;;;;;;;20.60;14.15;;;4.60;99.90;;;;;;5095086;28;20036;-67
2021/11/22 06:12:01;;;;;;;31.08;18.90;;;4.60;99.90;;;;;;5095645;28;20044;-67
2021/11/22 06:14:27;;;;;;;30.80;18.52;;;4.60;99.90;;;;;;5095344;28;20465;-67
2021/11/22 06:16:53;;;;;;;27.90;18.25;;;4.60;99.90;;;;;;5095009;28;20480;-67
2021/11/22 06:19:20;;;;;;;28.45;17.45;;;4.60;99.90;;;;;;5095490;28;20024;-67
2021/11/22 06:21:46;;;;;;;31.42;17.60;;;4.60;99.90;;;;;;5095216;28;20016;-67
2021/11/22 06:24:11;;;;;;;28.05;17.90;;;4.60;99.90;;;;;;5094370;28;20028;-66
2021/11/22 06:26:37;;;;;;;28.73;17.52;;;4.70;99.90;;;;;;5095119;28;20046;-66
2021/11/22 06:29:03;;;;;;;24.88;16.27;;;4.70;99.90;;;;;;5094611;28;20028;-66
2021/11/22 06:31:28;;;;;;;26.13;16.88;;;4.60;99.90;;;;;;5104246;28;20020;-66
2021/11/22 06:33:54;;;;;;;24.83;15.63;;;4.60;99.90;;;;;;5094217;28;20028;-66
2021/11/22 06:36:20;;;;;;;27.60;17.85;;;4.60;99.90;;;;;;5093751;28;20024;-66
2021/11/22 06:38:45;;;;;;;26.63;16.85;;;4.60;99.90;;;;;;5094309;28;20024;-66
2021/11/22 06:41:11;;;;;;;27.42;17.75;;;4.60;99.90;;;;;;5094010;28;20024;-66
2021/11/22 06:43:37;;;;;;;29.42;17.27;;;4.60;99.90;;;;;;5094040;28;20047;-67
2021/11/22 06:46:03;;;;;;;28.02;17.42;;;4.60;99.90;;;;;;5094514;28;20468;-67
2021/11/22 06:48:28;;;;;;;25.80;16.77;;;4.60;99.90;;;;;;5094640;28;20020;-66
2021/11/22 06:50:54;;;;;;;31.83;17.27;;;4.60;99.90;;;;;;5093315;28;20024;-65
2021/11/22 06:53:21;;;;;;;32.40;17.83;;;4.60;99.90;;;;;;5094533;28;20474;-66
2021/11/22 06:55:48;;;;;;;31.77;18.63;;;4.70;99.90;;;;;;5094054;28;20046;-67
2021/11/22 06:58:14;;;;;;;33.95;19.02;;;4.70;99.90;;;;;;5093276;28;20020;-66
2021/11/22 07:00:40;;;;;;;31.38;19.38;;;4.60;99.90;;;;;;5094668;28;20055;-67
2021/11/22 07:03:06;;;;;;;31.67;18.92;;;4.60;99.90;;;;;;5094381;28;20020;-66
2021/11/22 07:05:31;;;;;;;33.42;19.45;;;4.70;99.90;;;;;;5094384;28;20032;-66
2021/11/22 07:07:58;;;;;;;32.15;19.65;;;4.70;99.90;;;;;;5093903;28;20031;-66
2021/11/22 07:10:23;;;;;;;30.60;19.67;;;4.70;99.90;;;;;;5093904;28;20121;-66
2021/11/22 07:12:50;;;;;;;29.60;19.70;;;4.70;99.90;;;;;;5092927;28;20103;-66
2021/11/22 07:15:20;;;;;;;30.25;19.52;;;4.60;99.90;;;;;;5093238;28;20030;-67
2021/11/22 07:17:47;;;;;;;28.92;17.77;;;4.60;99.90;;;;;;5092519;28;20024;-66
2021/11/22 07:20:13;;;;;;;33.35;18.75;;;4.70;99.90;;;;;;5093619;28;20020;-67
2021/11/22 07:22:39;;;;;;;28.13;18.02;;;4.60;99.90;;;;;;5094039;28;20023;-67
2021/11/22 07:25:05;;;;;;;28.50;19.05;;;4.60;99.90;;;;;;5093609;28;20032;-66
2021/11/22 07:27:31;;;;;;;29.00;19.05;;;4.60;99.90;;;;;;5075724;28;20054;-66
2021/11/22 07:29:57;;;;;;;29.98;17.58;;;4.60;99.90;;;;;;5093876;28;20048;-66
2021/11/22 07:32:26;;;;;;;28.02;18.67;;;4.60;99.90;;;;;;5092878;28;20456;-67
2021/11/22 07:34:51;;;;;;;30.33;17.73;;;4.60;99.90;;;;;;5092087;28;20028;-66
2021/11/22 07:37:17;;;;;;;29.48;19.15;;;4.60;99.90;;;;;;5075469;28;20051;-66
2021/11/22 07:39:43;;;;;;;25.85;17.67;;;4.60;99.90;;;;;;5075649;28;20103;-66
2021/11/22 07:42:09;;;;;;;29.15;18.17;;;4.60;99.90;;;;;;5091391;28;20062;-67
2021/11/22 07:44:34;;;;;;;29.80;18.35;;;4.60;99.90;;;;;;5093002;28;20385;-67
2021/11/22 07:47:00;;;;;;;24.60;17.20;;;4.60;99.90;;;;;;5093695;28;20035;-67
2021/11/22 07:49:26;;;;;;;26.60;18.20;;;4.50;99.90;;;;;;5093829;28;20178;-67
2021/11/22 07:51:52;;;;;;;31.58;17.92;;;4.50;99.90;;;;;;5072104;28;20028;-67
2021/11/22 07:54:17;;;;;;;29.17;17.30;;;4.60;99.90;;;;;;5072338;28;20059;-67
2021/11/22 07:56:43;;;;;;;32.15;19.60;;;4.60;99.90;;;;;;5075005;28;20056;-67
2021/11/22 07:59:09;;;;;;;35.13;18.50;;;4.60;99.90;;;;;;5093333;28;20073;-66
2021/11/22 08:01:35;;;;;;;29.63;18.38;;;4.60;99.90;;;;;;5093513;28;20027;-65
2021/11/22 08:04:01;;;;;;;29.67;18.92;;;4.60;99.90;;;;;;5108833;28;20119;-66
2021/11/22 08:06:27;;;;;;;32.13;18.73;;;4.70;99.90;;;;;;5092197;28;20035;-67
2021/11/22 08:08:52;;;;;;;31.45;18.23;;;4.80;99.90;;;;;;5091846;28;20464;-66
2021/11/22 08:13:58;;;;;;;28.15;16.77;;;5.00;99.90;;;;;;5091417;28;20401;-67
2021/11/22 08:16:24;;;;;;;24.55;16.55;;;5.10;99.90;;;;;;5089575;28;20400;-67
2021/11/22 08:18:50;;;;;;;26.67;15.30;;;5.10;99.90;;;;;;5088128;28;20116;-66
2021/11/22 08:21:16;;;;;;;22.92;14.48;;;5.40;99.90;;;;;;5089396;28;20020;-67
2021/11/22 08:23:41;;;;;;;21.50;13.77;;;5.50;99.90;;;;;;5087398;28;20086;-66
2021/11/22 08:26:07;;;;;;;21.65;13.70;;;5.70;99.90;;;;;;5103415;28;20028;-67
2021/11/22 08:28:33;;;;;;;16.98;11.85;;;6.10;99.90;;;;;;5097544;28;20078;-67
2021/11/22 08:30:59;;;;;;;16.90;11.73;;;6.30;99.90;;;;;;5101922;28;20029;-67
2021/11/22 08:33:25;;;;;;;14.75;11.38;;;6.40;99.90;;;;;;5088754;28;20040;-67
2021/11/22 08:35:50;;;;;;;14.60;10.65;;;6.90;99.90;;;;;;5090780;28;20036;-67
2021/11/22 08:38:17;;;;;;;13.45;10.20;;;7.50;99.90;;;;;;5089174;28;20025;-67
2021/11/22 08:40:43;;;;;;;16.80;10.48;;;7.60;99.90;;;;;;5091111;28;20059;-67
2021/11/22 08:43:11;;;;;;;13.43;10.43;;;7.10;99.90;;;;;;5089827;28;20028;-67
2021/11/22 08:45:38;;;;;;;13.55;10.75;;;7.00;99.90;;;;;;5083915;28;20146;-67
2021/11/22 08:48:05;;;;;;;15.45;11.15;;;6.40;99.90;;;;;;5090231;28;20419;-67
2021/11/22 08:50:31;;;;;;;14.40;10.60;;;6.80;99.90;;;;;;5090086;28;20047;-67
2021/11/22 08:52:56;;;;;;;13.88;10.27;;;6.70;99.90;;;;;;5089196;28;20461;-66
2021/11/22 08:55:22;;;;;;;14.98;10.13;;;6.80;99.90;;;;;;5090238;28;20472;-67
2021/11/22 08:57:49;;;;;;;16.75;10.20;;;6.80;99.90;;;;;;5089909;28;20032;-67
2021/11/22 09:00:21;;;;;;;12.43;9.43;;;7.10;99.90;;;;;;5089013;28;20021;-67
2021/11/22 09:02:46;;;;;;;13.37;10.27;;;6.60;99.90;;;;;;5090084;28;20052;-67
2021/11/22 09:05:12;;;;;;;16.60;9.88;;;6.80;99.90;;;;;;5089052;28;20056;-67
2021/11/22 09:07:38;;;;;;;13.80;9.98;;;7.00;99.90;;;;;;5088904;28;20029;-67
2021/11/22 09:10:04;;;;;;;17.85;10.73;;;6.50;99.90;;;;;;5088495;28;20380;-67
2021/11/22 09:12:30;;;;;;;14.18;10.55;;;6.30;99.90;;;;;;5088695;28;20438;-67
2021/11/22 09:14:55;;;;;;;14.25;10.02;;;6.70;99.90;;;;;;5089841;28;20028;-67
2021/11/22 09:17:21;;;;;;;14.50;10.43;;;6.70;99.90;;;;;;5089883;28;20461;-67
2021/11/22 09:19:47;;;;;;;15.98;9.90;;;7.30;99.90;;;;;;5090004;28;20032;-67
2021/11/22 09:22:13;;;;;;;12.07;8.90;;;7.60;99.90;;;;;;5088816;28;20481;-67
2021/11/22 09:24:40;;;;;;;14.82;9.20;;;8.10;99.90;;;;;;5079283;28;20031;-67
2021/11/22 09:27:06;;;;;;;13.35;9.80;;;8.40;99.90;;;;;;5077701;28;20032;-68
2021/11/22 09:29:32;;;;;;;11.07;9.23;;;9.30;99.90;;;;;;5075357;28;20081;-68
2021/11/22 09:31:58;;;;;;;11.85;8.60;;;9.50;99.90;;;;;;5075473;28;20111;-68
2021/11/22 09:34:23;;;;;;;9.77;7.85;;;9.60;99.90;;;;;;5074313;28;20056;-68
2021/11/22 09:36:49;;;;;;;14.43;8.30;;;10.30;99.90;;;;;;5057754;28;20028;-68
2021/11/22 09:39:17;;;;;;;12.00;8.50;;;9.40;99.90;;;;;;5074694;28;20024;-68
2021/11/22 09:41:44;;;;;;;12.25;7.78;;;9.60;99.90;;;;;;5076080;28;20028;-68
2021/11/22 09:44:10;;;;;;;10.23;8.10;;;10.50;99.90;;;;;;5075502;28;20033;-68
2021/11/22 09:46:36;;;;;;;10.77;8.45;;;9.70;99.90;;;;;;5075627;28;20472;-68
2021/11/22 09:49:02;;;;;;;10.80;8.00;;;9.80;99.90;;;;;;5075086;28;20028;-68
2021/11/22 09:51:27;;;;;;;11.68;7.63;;;10.90;99.90;;;;;;5073506;28;20032;-68
2021/11/22 09:53:53;;;;;;;10.57;8.00;;;9.10;99.90;;;;;;5075156;28;20112;-67
2021/11/22 09:56:19;;;;;;;10.68;8.23;;;9.00;99.90;;;;;;5090727;28;20431;-68
2021/11/22 09:58:44;;;;;;;14.43;8.40;;;9.40;99.90;;;;;;5079153;28;20095;-68
2021/11/22 10:01:15;;;;;;;11.60;8.00;;;9.50;99.90;;;;;;5096072;28;20391;-68
2021/11/22 10:03:56;;;;;;;8.60;6.93;;;9.60;99.90;;;;;;5078361;28;20032;-68
2021/11/22 10:06:22;;;;;;;8.93;6.63;;;10.40;99.90;;;;;;5075393;28;20021;-68
2021/11/22 10:08:47;;;;;;;8.90;7.53;;;9.90;99.90;;;;;;5078759;28;20085;-68
2021/11/22 10:11:16;;;;;;;7.75;6.97;;;10.10;99.90;;;;;;5095767;28;20039;-68
2021/11/22 10:13:45;;;;;;;10.40;7.38;;;10.10;99.90;;;;;;5090442;28;20397;-68
2021/11/22 10:18:59;;;;;;;9.93;6.43;;;11.20;99.90;;;;;;5111206;27;20404;-67
2021/11/22 10:21:28;;;;;;;7.35;6.00;;;11.20;99.90;;;;;;5092469;28;20020;-67
2021/11/22 10:24:04;;;;;;;8.15;6.00;;;11.40;99.90;;;;;;5096363;28;20046;-67
2021/11/22 10:26:40;;;;;;;6.88;5.95;;;11.00;99.90;;;;;;5096590;28;20111;-67
2021/11/22 10:29:06;;;;;;;6.80;5.20;;;9.50;99.90;;;;;;5089626;28;20059;-67
2021/11/22 10:31:33;;;;;;;8.40;6.03;;;10.00;99.90;;;;;;5090375;28;20016;-67
2021/11/22 10:34:00;;;;;;;6.85;5.47;;;9.30;99.90;;;;;;5092132;28;20020;-68
2021/11/22 10:36:28;;;;;;;7.50;5.80;;;8.70;99.90;;;;;;5094801;28;20015;-68
2021/11/22 10:38:57;;;;;;;8.52;6.10;;;9.20;99.90;;;;;;5100007;28;20012;-68
2021/11/22 10:41:30;;;;;;;6.47;5.75;;;9.60;99.90;;;;;;5080051;28;20020;-68
2021/11/22 10:44:13;;;;;;;5.97;5.38;;;9.40;99.90;;;;;;5095305;28;20039;-68
2021/11/22 10:46:45;;;;;;;6.67;5.53;;;9.10;99.90;;;;;;5089288;28;20024;-68
2021/11/22 10:49:17;;;;;;;6.65;5.53;;;9.30;99.90;;;;;;5089062;28;20405;-68
2021/11/22 10:51:46;;;;;;;5.15;4.63;;;10.10;99.90;;;;;;5088545;28;20016;-67
2021/11/22 10:54:15;;;;;;;4.88;4.35;;;10.50;99.90;;;;;;5091583;28;20175;-67
2021/11/22 10:56:43;;;;;;;5.82;4.95;;;10.10;99.90;;;;;;5099957;28;20369;-67
2021/11/22 10:59:13;;;;;;;6.68;5.28;;;10.20;99.90;;;;;;5094129;28;20473;-68
2021/11/22 11:01:46;;;;;;;8.18;5.00;;;9.70;99.90;;;;;;5098904;28;20024;-68
2021/11/22 11:04:16;;;;;;;6.97;5.22;;;9.40;99.90;;;;;;5088799;28;20027;-68
2021/11/22 11:06:47;;;;;;;5.47;4.97;;;9.30;99.90;;;;;;5090107;28;20042;-67
2021/11/22 11:09:19;;;;;;;9.27;5.22;;;9.60;99.90;;;;;;5090036;28;20020;-67
2021/11/22 11:11:47;;;;;;;6.60;4.60;;;9.40;99.90;;;;;;5093613;28;20028;-67
2021/11/22 11:14:14;;;;;;;7.25;5.50;;;9.40;99.90;;;;;;5091538;28;20036;-67
2021/11/22 11:16:41;;;;;;;5.82;5.22;;;9.00;99.90;;;;;;5105412;28;20024;-67
2021/11/22 11:19:10;;;;;;;7.15;5.53;;;8.80;99.90;;;;;;5092787;28;20028;-67
2021/11/22 11:21:53;;;;;;;10.05;5.03;;;8.40;99.90;;;;;;5091771;28;20019;-67
2021/11/22 11:24:19;;;;;;;8.82;5.55;;;8.10;99.90;;;;;;5107863;28;20073;-68
2021/11/22 11:26:47;;;;;;;6.88;5.53;;;7.90;99.90;;;;;;5091217;28;20032;-67
2021/11/22 11:29:13;;;;;;;7.05;5.20;;;7.80;99.90;;;;;;5101190;28;20107;-68
2021/11/22 11:31:39;;;;;;;9.18;5.78;;;7.60;99.90;;;;;;5096598;28;20462;-67
2021/11/22 11:34:08;;;;;;;5.55;4.50;;;7.50;99.90;;;;;;5078939;28;20048;-67
2021/11/22 11:39:47;;;;;;;8.50;5.63;;;7.40;99.90;;;;;;5112425;27;20896;-67
2021/11/22 11:42:53;;;;;;;11.27;5.97;;;7.70;99.90;;;;;;5111380;28;20035;-68
2021/11/22 11:45:30;;;;;;;6.78;4.90;;;7.60;99.90;;;;;;5080273;28;20032;-67
2021/11/22 11:48:22;;;;;;;7.60;4.63;;;7.70;99.90;;;;;;5091343;28;20024;-68
2021/11/22 11:50:48;;;;;;;5.55;4.07;;;7.90;99.90;;;;;;5090424;28;20115;-68
2021/11/22 11:53:16;;;;;;;7.07;4.55;;;7.70;99.90;;;;;;5097083;28;20046;-67
2021/11/22 11:55:44;;;;;;;8.38;4.32;;;7.60;99.90;;;;;;5092444;28;20054;-66
2021/11/22 11:58:25;;;;;;;7.10;5.50;;;7.60;99.90;;;;;;5102991;28;20065;-67
2021/11/22 12:00:56;;;;;;;12.07;7.45;;;7.60;99.90;;;;;;5099240;28;20025;-67
2021/11/22 12:03:23;;;;;;;11.23;6.80;;;7.70;99.90;;;;;;5090433;28;20027;-67
2021/11/22 12:05:51;;;;;;;7.80;4.70;;;7.90;99.90;;;;;;5090368;28;20021;-66
2021/11/22 12:08:29;;;;;;;6.55;4.20;;;7.70;99.90;;;;;;5090982;28;20048;-68
2021/11/22 12:10:57;;;;;;;6.95;4.88;;;7.70;99.90;;;;;;5090311;28;20024;-68
2021/11/22 12:13:23;;;;;;;6.50;4.60;;;7.70;99.90;;;;;;5092958;28;20016;-68
2021/11/22 12:15:53;;;;;;;7.20;4.03;;;7.70;99.90;;;;;;5092717;28;20106;-66
2021/11/22 12:18:30;;;;;;;6.70;3.97;;;7.50;99.90;;;;;;5108572;28;20115;-68
2021/11/22 12:20:58;;;;;;;6.45;3.88;;;7.30;99.90;;;;;;5091440;28;20147;-66
2021/11/22 12:23:28;;;;;;;5.90;4.38;;;7.40;99.90;;;;;;5089915;28;20070;-67
2021/11/22 12:25:57;;;;;;;5.45;3.63;;;7.50;99.90;;;;;;5089990;28;20040;-67
2021/11/22 12:31:08;;;;;;;5.68;3.97;;;7.60;99.90;;;;;;5111291;27;20295;-68
2021/11/22 12:33:38;;;;;;;5.43;4.18;;;7.50;99.90;;;;;;5110003;28;20042;-68
2021/11/22 12:36:25;;;;;;;7.13;4.30;;;7.50;99.90;;;;;;5110604;28;20028;-68
2021/11/22 12:39:05;;;;;;;5.53;3.95;;;7.50;99.90;;;;;;5110881;28;20032;-68
2021/11/22 12:41:33;;;;;;;7.70;4.45;;;7.30;99.90;;;;;;5111069;28;20028;-68
2021/11/22 12:44:17;;;;;;;8.30;4.45;;;7.50;99.90;;;;;;5111539;28;20034;-68
2021/11/22 12:46:47;;;;;;;;;;;7.40;99.90;;;;;;5109793;28;20027;-68
2021/11/22 12:49:35;;;;;;;6.50;4.20;;;7.50;99.90;;;;;;5107486;28;19914;-68
2021/11/22 12:52:24;;;;;;;6.80;4.00;;;7.50;99.90;;;;;;5111310;28;20042;-68
2021/11/22 12:54:53;;;;;;;7.55;4.03;;;7.60;99.90;;;;;;5110616;28;20382;-68